Rhodanus — PGBC — position and weather

sailwx.info

Track history (hours):
 
Tides and Currents Weather Stations Pressure Air Temp Water Temp Dewpoint Dewpoint Depression Visibility Wind Speed Wind Dir Waves Ship Positions

Rhodanus

Last reported at 2014-Oct-02 03:28 UTC. Time now 2014-Oct-02 04:29 UTC.
Position N 53°24' W 003°03'.

Length 89 m; draft 4.5 m.

Type: Cargo ship. MMSI: 245848000.

Date/timePositionNaut miles runAvg speedWind from/ knotsBaromVisibWave heightAir tempDewpointWater temp
2014-Oct-02 03:28N 53°24' W 003°03'0 0.0
2014-Oct-02 02:28N 53°24' W 003°03'0 0.0
2014-Oct-02 01:28N 53°24' W 003°03'0 0.0
2014-Oct-02 00:28N 53°24' W 003°03'0 0.0
2014-Oct-01 23:28N 53°24' W 003°03'0 0.0
2014-Oct-01 22:28N 53°24' W 003°03'0 0.0
2014-Oct-01 21:28N 53°24' W 003°03'0 0.0
2014-Oct-01 20:28N 53°24' W 003°03'0 0.0
2014-Oct-01 19:28N 53°24' W 003°03'0 0.0
2014-Oct-01 18:28N 53°24' W 003°03'0 0.0
2014-Oct-01 17:28N 53°24' W 003°03'0 0.0
2014-Oct-01 16:28N 53°24' W 003°03'0 0.0
2014-Oct-01 15:28N 53°24' W 003°03'0 0.0
2014-Oct-01 14:28N 53°24' W 003°03'0 0.0
2014-Oct-01 13:28N 53°24' W 003°03'0 0.0
2014-Oct-01 12:28N 53°24' W 003°03'0 0.0
2014-Oct-01 11:28N 53°24' W 003°03'0 0.0
2014-Oct-01 10:28N 53°24' W 003°03'0 0.0
2014-Oct-01 09:28N 53°24' W 003°03'0 0.0
2014-Oct-01 08:28N 53°24' W 003°03'0 0.0
2014-Oct-01 07:28N 53°24' W 003°03'0 0.0
2014-Oct-01 06:28N 53°24' W 003°03'0 0.0
2014-Oct-01 05:28N 53°24' W 003°03'0 0.0
2014-Oct-01 04:22N 53°24' W 003°03'0 0.0
2014-Oct-01 03:28N 53°24' W 003°03'0 0.0
2014-Oct-01 02:28N 53°24' W 003°03'0 0.0
2014-Oct-01 01:22N 53°24' W 003°03'0 0.0
2014-Oct-01 00:28N 53°24' W 003°03'0 0.0
2014-Sep-30 23:28N 53°24' W 003°03'0 0.0
2014-Sep-30 22:28N 53°24' W 003°03'0 0.0
2014-Sep-30 21:28N 53°24' W 003°03'0 0.0
2014-Sep-30 20:28N 53°24' W 003°03'0 0.0
2014-Sep-30 19:28N 53°24' W 003°03'0 0.0
2014-Sep-30 18:28N 53°24' W 003°03'0 0.0
2014-Sep-30 17:28N 53°24' W 003°03'0 0.0
2014-Sep-30 16:28N 53°24' W 003°03'1 0.8
2014-Sep-30 15:28N 53°24' W 003°01'0 0.0
2014-Sep-30 14:28N 53°24' W 003°01'0 0.0
2014-Sep-30 13:28N 53°24' W 003°01'0 0.0
2014-Sep-30 12:28N 53°24' W 003°01'0 0.0
2014-Sep-30 11:22N 53°24' W 003°01'0 0.0
2014-Sep-30 10:22N 53°24' W 003°01'0 0.0
2014-Sep-30 09:28N 53°24' W 003°01'0 0.0
2014-Sep-30 08:28N 53°24' W 003°01'0 0.0
2014-Sep-30 07:28N 53°24' W 003°01'0 0.0
2014-Sep-30 06:28N 53°24' W 003°01'0 0.0
2014-Sep-30 05:28N 53°24' W 003°01'0 0.0
2014-Sep-30 04:28N 53°24' W 003°01'0 0.0
2014-Sep-30 03:28N 53°24' W 003°01'0 0.0
2014-Sep-30 02:28N 53°24' W 003°01'0 0.0
2014-Sep-30 01:28N 53°24' W 003°01'0 0.4
2014-Sep-30 00:34N 53°24' W 003°01'6 6.5
2014-Sep-29 23:33N 53°30' W 003°06'9 8.2
2014-Sep-29 22:30N 53°31' W 003°20'4 0.7
2014-Sep-29 16:33N 53°28' W 003°26'7 6.7
2014-Sep-29 15:33N 53°30' W 003°36'9 8.7
2014-Sep-29 14:33N 53°30' W 003°51'9 9.3
2014-Sep-29 13:33N 53°30' W 004°06'1010.3
2014-Sep-29 12:33N 53°30' W 004°24'  
2014-Sep-25 00:12N 38°18' W 009°43'7 7.8
2014-Sep-24 23:17N 38°11' W 009°41'6 7.7
2014-Sep-24 22:33N 38°06' W 009°39'8 7.8
2014-Sep-24 21:33N 37°58' W 009°37'8 7.9
2014-Sep-24 20:32N 37°50' W 009°34'  
Track history (hours):
 
Tides and Currents Weather Stations Pressure Air Temp Water Temp Dewpoint Dewpoint Depression Visibility Wind Speed Wind Dir Waves Ship Positions

Rhodanus

Last reported at 2014-Oct-02 03:28 UTC. Time now 2014-Oct-02 04:29 UTC.
Position N 53°24' W 003°03'.

Length 89 m; draft 4.5 m.

Type: Cargo ship. MMSI: 245848000.

Date/timePositionNaut miles runAvg speedWind from/ knotsBaromVisibWave heightAir tempDewpointWater temp
2014-Oct-02 03:28N 53°24' W 003°03'0 0.0
2014-Oct-02 02:28N 53°24' W 003°03'0 0.0
2014-Oct-02 01:28N 53°24' W 003°03'0 0.0
2014-Oct-02 00:28N 53°24' W 003°03'0 0.0
2014-Oct-01 23:28N 53°24' W 003°03'0 0.0
2014-Oct-01 22:28N 53°24' W 003°03'0 0.0
2014-Oct-01 21:28N 53°24' W 003°03'0 0.0
2014-Oct-01 20:28N 53°24' W 003°03'0 0.0
2014-Oct-01 19:28N 53°24' W 003°03'0 0.0
2014-Oct-01 18:28N 53°24' W 003°03'0 0.0
2014-Oct-01 17:28N 53°24' W 003°03'0 0.0
2014-Oct-01 16:28N 53°24' W 003°03'0 0.0
2014-Oct-01 15:28N 53°24' W 003°03'0 0.0
2014-Oct-01 14:28N 53°24' W 003°03'0 0.0
2014-Oct-01 13:28N 53°24' W 003°03'0 0.0
2014-Oct-01 12:28N 53°24' W 003°03'0 0.0
2014-Oct-01 11:28N 53°24' W 003°03'0 0.0
2014-Oct-01 10:28N 53°24' W 003°03'0 0.0
2014-Oct-01 09:28N 53°24' W 003°03'0 0.0
2014-Oct-01 08:28N 53°24' W 003°03'0 0.0
2014-Oct-01 07:28N 53°24' W 003°03'0 0.0
2014-Oct-01 06:28N 53°24' W 003°03'0 0.0
2014-Oct-01 05:28N 53°24' W 003°03'0 0.0
2014-Oct-01 04:22N 53°24' W 003°03'0 0.0
2014-Oct-01 03:28N 53°24' W 003°03'0 0.0
2014-Oct-01 02:28N 53°24' W 003°03'0 0.0
2014-Oct-01 01:22N 53°24' W 003°03'0 0.0
2014-Oct-01 00:28N 53°24' W 003°03'0 0.0
2014-Sep-30 23:28N 53°24' W 003°03'0 0.0
2014-Sep-30 22:28N 53°24' W 003°03'0 0.0
2014-Sep-30 21:28N 53°24' W 003°03'0 0.0
2014-Sep-30 20:28N 53°24' W 003°03'0 0.0
2014-Sep-30 19:28N 53°24' W 003°03'0 0.0
2014-Sep-30 18:28N 53°24' W 003°03'0 0.0
2014-Sep-30 17:28N 53°24' W 003°03'0 0.0
2014-Sep-30 16:28N 53°24' W 003°03'1 0.8
2014-Sep-30 15:28N 53°24' W 003°01'0 0.0
2014-Sep-30 14:28N 53°24' W 003°01'0 0.0
2014-Sep-30 13:28N 53°24' W 003°01'0 0.0
2014-Sep-30 12:28N 53°24' W 003°01'0 0.0
2014-Sep-30 11:22N 53°24' W 003°01'0 0.0
2014-Sep-30 10:22N 53°24' W 003°01'0 0.0
2014-Sep-30 09:28N 53°24' W 003°01'0 0.0
2014-Sep-30 08:28N 53°24' W 003°01'0 0.0
2014-Sep-30 07:28N 53°24' W 003°01'0 0.0
2014-Sep-30 06:28N 53°24' W 003°01'0 0.0
2014-Sep-30 05:28N 53°24' W 003°01'0 0.0
2014-Sep-30 04:28N 53°24' W 003°01'0 0.0
2014-Sep-30 03:28N 53°24' W 003°01'0 0.0
2014-Sep-30 02:28N 53°24' W 003°01'0 0.0
2014-Sep-30 01:28N 53°24' W 003°01'0 0.4
2014-Sep-30 00:34N 53°24' W 003°01'6 6.5
2014-Sep-29 23:33N 53°30' W 003°06'9 8.2
2014-Sep-29 22:30N 53°31' W 003°20'4 0.7
2014-Sep-29 16:33N 53°28' W 003°26'7 6.7
2014-Sep-29 15:33N 53°30' W 003°36'9 8.7
2014-Sep-29 14:33N 53°30' W 003°51'9 9.3
2014-Sep-29 13:33N 53°30' W 004°06'1010.3
2014-Sep-29 12:33N 53°30' W 004°24'  
2014-Sep-25 00:12N 38°18' W 009°43'7 7.8
2014-Sep-24 23:17N 38°11' W 009°41'6 7.7
2014-Sep-24 22:33N 38°06' W 009°39'8 7.8
2014-Sep-24 21:33N 37°58' W 009°37'8 7.9
2014-Sep-24 20:32N 37°50' W 009°34'  

Dump ship's entire track history